Time;durP1;ratioP1;P1;durP2;ratioP2;P2;SDS_P1;SDS_P2;PMS_P1;PMS_P2;Temp;Humidity;BMP_temperature;BMP_pressure;BME280_temperature;BME280_humidity;BME280_pressure;Samples;Min_cycle;Max_cycle;Signal;HPM_P1;HPM_P2
2021/10/02 00:46:32;;;;;;;;;;;14.60;94.10;;;;;;4299532;33;43883;-82
2021/10/02 00:49:03;;;;;;;;;;;14.60;94.10;;;;;;4298170;33;43886;-82
2021/10/02 00:51:30;;;;;;;;;;;14.60;94.10;;;;;;4315949;33;43318;-81
2021/10/02 00:53:58;;;;;;;;;;;14.60;94.10;;;;;;4302829;33;44024;-81
2021/10/02 00:56:25;;;;;;;;;;;14.60;94.20;;;;;;4315832;33;46039;-82
2021/10/02 00:58:52;;;;;;;;;;;14.60;94.20;;;;;;4302794;33;43141;-81
2021/10/02 01:01:23;;;;;;;;;;;14.60;94.30;;;;;;4315912;33;43363;-83
2021/10/02 01:03:56;;;;;;;;;;;14.60;94.30;;;;;;4315485;33;43657;-81
2021/10/02 01:06:29;;;;;;;;;;;14.60;94.30;;;;;;4315556;33;42961;-82
2021/10/02 01:09:09;;;;;;;;;;;14.60;94.30;;;;;;4317101;33;20003;-82
2021/10/02 01:11:36;;;;;;;;;;;14.60;94.30;;;;;;4315906;33;44392;-82
2021/10/02 01:14:12;;;;;;;;;;;14.50;94.30;;;;;;4302865;33;44144;-81
2021/10/02 01:16:44;;;;;;;;;;;14.50;94.40;;;;;;4314079;33;42886;-81
2021/10/02 01:19:28;;;;;;;;;;;14.50;94.30;;;;;;4315846;33;43871;-81
2021/10/02 01:22:08;;;;;;;;;;;14.50;94.30;;;;;;4315983;33;43775;-81
2021/10/02 01:24:36;;;;;;;;;;;14.60;94.40;;;;;;4314846;33;43922;-81
2021/10/02 01:27:22;;;;;;;;;;;14.60;94.40;;;;;;4315915;33;44003;-82
2021/10/02 01:29:49;;;;;;;;;;;14.50;94.40;;;;;;4314351;33;43482;-81
2021/10/02 01:32:29;;;;;;;;;;;14.60;94.40;;;;;;4315717;33;43804;-81
2021/10/02 01:48:45;;;;;;;;;;;14.60;94.50;;;;;;4315641;33;43762;-82
2021/10/02 01:51:13;;;;;;;;;;;14.50;94.40;;;;;;4315672;33;42178;-81
2021/10/02 01:53:44;;;;;;;;;;;14.50;94.50;;;;;;4315596;33;44158;-82
2021/10/02 01:56:17;;;;;;;;;;;14.60;94.50;;;;;;4314176;33;42934;-81
2021/10/02 01:58:45;;;;;;;;;;;14.60;94.50;;;;;;4315677;33;43650;-81
2021/10/02 02:01:13;;;;;;;;;;;14.50;94.50;;;;;;4315772;33;43018;-81
2021/10/02 02:03:42;;;;;;;;;;;14.60;94.50;;;;;;4314936;33;43691;-81
2021/10/02 02:06:10;;;;;;;;;;;14.60;94.60;;;;;;4313998;33;43716;-82
2021/10/02 02:08:42;;;;;;;;;;;14.60;94.60;;;;;;4314170;33;43599;-81
2021/10/02 02:11:25;;;;;;;;;;;14.50;94.50;;;;;;4315774;33;43867;-81
2021/10/02 02:13:52;;;;;;;;;;;14.50;94.60;;;;;;4315581;33;43177;-81
2021/10/02 02:16:20;;;;;;;;;;;14.50;94.60;;;;;;4302182;33;44185;-82
2021/10/02 02:18:50;;;;;;;;;;;14.50;94.60;;;;;;4301902;33;42001;-81
2021/10/02 02:21:19;;;;;;;;;;;14.50;94.60;;;;;;4301901;33;43729;-81
2021/10/02 02:23:49;;;;;;;;;;;14.50;94.70;;;;;;4315448;33;44773;-81
2021/10/02 02:26:20;;;;;;;;;;;14.40;94.70;;;;;;4314006;33;44197;-81
2021/10/02 02:28:47;;;;;;;;;;;14.40;94.70;;;;;;4304781;33;43299;-81
2021/10/02 02:31:15;;;;;;;;;;;14.40;94.80;;;;;;4316579;33;43587;-81
2021/10/02 02:33:42;;;;;;;;;;;14.40;94.80;;;;;;4316688;33;43180;-81
2021/10/02 02:36:12;;;;;;;;;;;14.40;94.80;;;;;;4317666;33;43941;-83
2021/10/02 02:38:39;;;;;;;;;;;14.40;94.80;;;;;;4317917;33;42979;-82
2021/10/02 02:41:07;;;;;;;;;;;14.40;94.80;;;;;;4318721;33;20002;-81
2021/10/02 02:43:34;;;;;;;;;;;14.40;94.90;;;;;;4317850;33;43217;-81
2021/10/02 02:46:07;;;;;;;;;;;14.40;94.90;;;;;;4317298;33;42369;-81
2021/10/02 02:48:50;;;;;;;;;;;14.40;94.90;;;;;;4317342;33;43482;-80
2021/10/02 02:51:19;;;;;;;;;;;14.40;94.80;;;;;;4317568;33;43069;-81
2021/10/02 02:53:56;;;;;;;;;;;14.40;94.90;;;;;;4317809;33;43527;-81
2021/10/02 02:56:23;;;;;;;;;;;14.40;94.90;;;;;;4316785;33;43835;-81
2021/10/02 02:58:52;;;;;;;;;;;14.40;95.30;;;;;;4317297;33;45921;-81
2021/10/02 03:01:20;;;;;;;;;;;14.40;94.90;;;;;;4317534;33;45602;-82
2021/10/02 03:03:53;;;;;;;;;;;14.40;94.90;;;;;;4316946;33;43482;-81
2021/10/02 03:06:21;;;;;;;;;;;14.30;94.90;;;;;;4317143;33;43060;-82
2021/10/02 03:08:54;;;;;;;;;;;14.40;95.00;;;;;;4316506;33;43418;-82
2021/10/02 03:11:24;;;;;;;;;;;14.30;95.00;;;;;;4317099;33;20378;-81
2021/10/02 03:13:53;;;;;;;;;;;14.40;95.00;;;;;;4304411;33;43937;-81
2021/10/02 03:16:21;;;;;;;;;;;14.40;95.00;;;;;;4304390;33;44228;-81
2021/10/02 03:18:50;;;;;;;;;;;14.40;95.10;;;;;;4303870;33;44235;-81
2021/10/02 03:21:23;;;;;;;;;;;14.30;95.00;;;;;;4315727;33;42566;-81
2021/10/02 03:23:53;;;;;;;;;;;14.40;95.10;;;;;;4317361;33;44264;-81
2021/10/02 03:26:23;;;;;;;;;;;14.30;95.10;;;;;;4303742;33;42904;-81
2021/10/02 03:28:51;;;;;;;;;;;14.30;95.10;;;;;;4317024;33;42854;-81
2021/10/02 03:31:18;;;;;;;;;;;14.30;95.10;;;;;;4317338;33;43223;-81
2021/10/02 03:33:47;;;;;;;;;;;14.30;95.10;;;;;;4317177;33;43485;-81
2021/10/02 03:36:14;;;;;;;;;;;14.30;95.10;;;;;;4316671;33;42715;-81
2021/10/02 03:38:42;;;;;;;;;;;14.30;95.10;;;;;;4303183;33;43009;-81
2021/10/02 03:41:10;;;;;;;;;;;14.30;95.10;;;;;;4303639;33;43016;-81
2021/10/02 03:43:37;;;;;;;;;;;14.30;95.10;;;;;;4316798;33;42598;-81
2021/10/02 03:46:08;;;;;;;;;;;14.30;95.10;;;;;;4316816;33;44286;-81
2021/10/02 03:48:35;;;;;;;;;;;14.30;95.10;;;;;;4316487;33;43317;-81
2021/10/02 03:51:03;;;;;;;;;;;14.30;95.50;;;;;;4315368;33;44184;-81
2021/10/02 03:53:30;;;;;;;;;;;14.30;95.10;;;;;;4315759;33;43210;-81
2021/10/02 03:55:58;;;;;;;;;;;14.30;95.10;;;;;;4315445;33;43202;-80
2021/10/02 03:58:26;;;;;;;;;;;14.30;95.10;;;;;;4316861;33;42546;-80
2021/10/02 04:00:53;;;;;;;;;;;14.30;95.10;;;;;;4303588;33;43257;-80
2021/10/02 04:03:23;;;;;;;;;;;14.30;95.10;;;;;;4303589;33;43166;-80
2021/10/02 04:05:50;;;;;;;;;;;14.30;95.10;;;;;;4316418;33;43699;-81
2021/10/02 04:08:17;;;;;;;;;;;14.30;95.20;;;;;;4303131;33;42838;-81
2021/10/02 04:10:44;;;;;;;;;;;14.30;95.10;;;;;;4303067;33;41834;-81
2021/10/02 04:13:11;;;;;;;;;;;14.30;95.20;;;;;;4315944;33;43558;-81
2021/10/02 04:15:39;;;;;;;;;;;14.30;95.20;;;;;;4316440;33;43917;-80
2021/10/02 04:18:06;;;;;;;;;;;14.30;95.20;;;;;;4303484;33;45280;-81
2021/10/02 04:20:33;;;;;;;;;;;14.30;95.20;;;;;;4316382;33;43365;-80
2021/10/02 04:23:03;;;;;;;;;;;14.20;95.20;;;;;;4316081;33;42958;-80
2021/10/02 04:25:30;;;;;;;;;;;14.20;95.20;;;;;;4314853;33;42433;-81
2021/10/02 04:27:58;;;;;;;;;;;14.20;95.20;;;;;;4316064;33;42776;-80
2021/10/02 04:30:25;;;;;;;;;;;14.20;95.20;;;;;;4316366;33;43854;-80
2021/10/02 04:32:52;;;;;;;;;;;14.20;95.20;;;;;;4315899;33;42639;-81
2021/10/02 04:35:19;;;;;;;;;;;14.20;95.20;;;;;;4315917;33;42854;-80
2021/10/02 04:37:49;;;;;;;;;;;14.20;95.30;;;;;;4315078;33;42754;-80
2021/10/02 04:40:18;;;;;;;;;;;14.20;95.30;;;;;;4316104;33;45002;-80
2021/10/02 04:42:45;;;;;;;;;;;14.20;95.30;;;;;;4316088;33;44767;-81
2021/10/02 04:45:17;;;;;;;;;;;14.20;95.30;;;;;;4315648;33;42510;-81
2021/10/02 04:47:45;;;;;;;;;;;14.20;95.30;;;;;;4316032;33;42877;-80
2021/10/02 04:50:12;;;;;;;;;;;14.20;95.30;;;;;;4315519;33;42626;-81
2021/10/02 04:52:39;;;;;;;;;;;14.20;95.30;;;;;;4315694;33;42654;-81
2021/10/02 04:55:07;;;;;;;;;;;14.20;95.30;;;;;;4315608;33;42145;-80
2021/10/02 04:57:37;;;;;;;;;;;14.20;95.30;;;;;;4303249;33;43508;-80
2021/10/02 05:00:07;;;;;;;;;;;14.20;95.30;;;;;;4315851;33;42611;-80
2021/10/02 05:02:37;;;;;;;;;;;14.20;95.30;;;;;;4302620;33;44596;-81
2021/10/02 05:05:05;;;;;;;;;;;14.20;95.30;;;;;;4315609;33;43734;-81
2021/10/02 05:07:32;;;;;;;;;;;14.20;95.40;;;;;;4302693;33;42611;-81
2021/10/02 05:09:59;;;;;;;;;;;14.20;95.40;;;;;;4315492;33;42638;-81
2021/10/02 05:12:26;;;;;;;;;;;14.20;95.40;;;;;;4316009;33;43959;-80
2021/10/02 05:14:53;;;;;;;;;;;14.20;95.40;;;;;;4315902;33;43486;-80
2021/10/02 05:17:20;;;;;;;;;;;14.20;95.40;;;;;;4314630;33;43969;-80
2021/10/02 05:19:47;;;;;;;;;;;14.10;95.30;;;;;;4315800;33;45954;-80
2021/10/02 05:22:14;;;;;;;;;;;14.10;95.30;;;;;;4315593;33;42266;-80
2021/10/02 05:24:42;;;;;;;;;;;14.20;95.40;;;;;;4315742;33;44173;-80
2021/10/02 05:27:15;;;;;;;;;;;14.10;95.30;;;;;;4315859;33;43742;-80
2021/10/02 05:29:43;;;;;;;;;;;14.10;95.30;;;;;;4314539;33;42896;-81
2021/10/02 05:32:13;;;;;;;;;;;14.10;95.30;;;;;;4314580;33;42878;-81
2021/10/02 05:34:40;;;;;;;;;;;14.10;95.40;;;;;;4302673;33;43029;-80
2021/10/02 05:37:08;;;;;;;;;;;14.10;95.30;;;;;;4302672;33;44062;-80
2021/10/02 05:39:38;;;;;;;;;;;14.10;95.30;;;;;;4315491;33;43734;-80
2021/10/02 05:42:05;;;;;;;;;;;14.10;95.30;;;;;;4315262;33;43285;-81
2021/10/02 05:44:33;;;;;;;;;;;14.10;95.30;;;;;;4316416;33;20069;-80
2021/10/02 05:47:00;;;;;;;;;;;14.10;95.30;;;;;;4314665;33;43189;-81
2021/10/02 05:49:27;;;;;;;;;;;14.10;95.30;;;;;;4315531;33;45131;-80
2021/10/02 05:51:55;;;;;;;;;;;14.10;95.30;;;;;;4315108;33;44556;-81
2021/10/02 05:54:22;;;;;;;;;;;14.10;95.40;;;;;;4315923;33;43533;-80
2021/10/02 05:56:49;;;;;;;;;;;14.10;95.40;;;;;;4302237;33;43171;-80
2021/10/02 05:59:16;;;;;;;;;;;14.10;95.40;;;;;;4315493;33;43469;-81
2021/10/02 06:01:43;;;;;;;;;;;14.10;95.40;;;;;;4314475;33;42807;-80
2021/10/02 06:04:12;;;;;;;;;;;14.00;95.40;;;;;;4317478;33;43715;-81
2021/10/02 06:06:42;;;;;;;;;;;14.00;95.40;;;;;;4318185;33;43458;-81
2021/10/02 06:09:09;;;;;;;;;;;14.10;95.40;;;;;;4317904;33;43882;-80
2021/10/02 06:11:39;;;;;;;;;;;14.10;95.40;;;;;;4317000;33;43898;-81
2021/10/02 06:14:09;;;;;;;;;;;14.10;95.50;;;;;;4317409;33;43190;-80
2021/10/02 06:16:38;;;;;;;;;;;14.10;95.40;;;;;;4318112;33;44275;-80
2021/10/02 06:19:06;;;;;;;;;;;14.10;95.40;;;;;;4318126;33;43394;-81
2021/10/02 06:21:33;;;;;;;;;;;14.10;95.40;;;;;;4317971;33;43913;-81
2021/10/02 06:24:01;;;;;;;;;;;14.10;95.40;;;;;;4304788;33;43674;-80
2021/10/02 06:26:32;;;;;;;;;;;14.20;95.50;;;;;;4304812;33;42497;-80
2021/10/02 06:28:59;;;;;;;;;;;14.10;95.40;;;;;;4305130;33;43479;-81
2021/10/02 06:31:26;;;;;;;;;;;14.10;95.40;;;;;;4305004;33;43247;-81
2021/10/02 06:33:53;;;;;;;;;;;14.20;95.50;;;;;;4317908;33;43050;-81
2021/10/02 06:36:27;;;;;;;;;;;14.20;95.50;;;;;;4316485;33;44072;-81
2021/10/02 06:38:55;;;;;;;;;;;14.20;95.50;;;;;;4318198;33;43512;-80
2021/10/02 06:41:24;;;;;;;;;;;14.20;95.50;;;;;;4317568;33;45775;-80
2021/10/02 06:43:51;;;;;;;;;;;14.10;95.50;;;;;;4318002;33;44173;-81
2021/10/02 06:46:23;;;;;;;;;;;14.10;95.60;;;;;;4305191;33;43010;-80
2021/10/02 06:48:50;;;;;;;;;;;14.10;95.60;;;;;;4317597;33;44011;-81
2021/10/02 06:51:18;;;;;;;;;;;14.10;95.60;;;;;;4317454;33;43033;-80
2021/10/02 06:53:47;;;;;;;;;;;14.10;95.60;;;;;;4317298;33;42482;-80
2021/10/02 06:56:17;;;;;;;;;;;14.10;95.60;;;;;;4317560;33;42667;-80
2021/10/02 06:58:44;;;;;;;;;;;14.10;95.60;;;;;;4316645;33;44692;-81
2021/10/02 07:01:11;;;;;;;;;;;14.10;95.60;;;;;;4317510;33;44017;-80
2021/10/02 07:03:38;;;;;;;;;;;14.10;95.60;;;;;;4317249;33;43088;-81
2021/10/02 07:06:06;;;;;;;;;;;14.10;95.70;;;;;;4304081;33;43293;-81
2021/10/02 07:08:33;;;;;;;;;;;14.10;95.70;;;;;;4317025;33;42490;-80
2021/10/02 07:11:00;;;;;;;;;;;14.10;95.70;;;;;;4317402;33;43331;-80
2021/10/02 07:13:27;;;;;;;;;;;14.10;95.70;;;;;;4317342;33;44776;-81
2021/10/02 07:15:57;;;;;;;;;;;14.10;95.70;;;;;;4317517;33;44869;-80
2021/10/02 07:18:24;;;;;;;;;;;14.10;95.60;;;;;;4304259;33;44311;-81
2021/10/02 07:20:54;;;;;;;;;;;14.10;95.70;;;;;;4316925;33;44234;-80
2021/10/02 07:23:21;;;;;;;;;;;14.10;95.70;;;;;;4317164;33;46060;-81
2021/10/02 07:25:48;;;;;;;;;;;14.10;95.70;;;;;;4317153;33;46000;-80
2021/10/02 07:28:15;;;;;;;;;;;14.20;95.70;;;;;;4303751;33;42752;-81
2021/10/02 07:30:45;;;;;;;;;;;14.20;95.70;;;;;;4315813;33;44175;-80
2021/10/02 07:33:12;;;;;;;;;;;14.20;95.70;;;;;;4303628;33;44233;-81
2021/10/02 07:35:39;;;;;;;;;;;14.20;95.70;;;;;;4315695;33;42807;-81
2021/10/02 07:38:06;;;;;;;;;;;14.20;95.70;;;;;;4316821;33;43088;-80
2021/10/02 07:40:35;;;;;;;;;;;14.20;95.60;;;;;;4303961;33;43060;-81
2021/10/02 07:43:02;;;;;;;;;;;14.30;95.70;;;;;;4316575;33;43956;-80
2021/10/02 07:45:30;;;;;;;;;;;14.20;95.70;;;;;;4316956;33;42841;-80
2021/10/02 07:47:58;;;;;;;;;;;14.30;95.70;;;;;;4316767;33;43650;-81
2021/10/02 07:50:28;;;;;;;;;;;14.30;95.70;;;;;;4303950;33;43566;-81
2021/10/02 07:52:55;;;;;;;;;;;14.30;95.70;;;;;;4303680;33;42907;-81
2021/10/02 07:55:26;;;;;;;;;;;14.30;95.70;;;;;;4303327;33;43426;-81
2021/10/02 07:57:56;;;;;;;;;;;14.30;95.70;;;;;;4304095;33;44218;-80
2021/10/02 08:00:23;;;;;;;;;;;14.30;95.70;;;;;;4316367;33;42129;-80
2021/10/02 08:02:55;;;;;;;;;;;14.40;95.70;;;;;;4303478;33;43581;-81
2021/10/02 08:05:24;;;;;;;;;;;14.30;95.70;;;;;;4303826;33;43531;-80
2021/10/02 08:07:51;;;;;;;;;;;14.40;95.70;;;;;;4303496;33;45990;-81
2021/10/02 08:10:21;;;;;;;;;;;14.40;95.70;;;;;;4315715;33;43045;-80
2021/10/02 08:12:51;;;;;;;;;;;14.40;95.70;;;;;;4303333;33;42638;-81
2021/10/02 08:15:18;;;;;;;;;;;14.40;95.70;;;;;;4315141;33;46076;-81
2021/10/02 08:17:45;;;;;;;;;;;14.40;95.70;;;;;;4316578;33;44215;-81
2021/10/02 08:20:18;;;;;;;;;;;14.40;95.70;;;;;;4316391;33;43475;-80
2021/10/02 08:22:49;;;;;;;;;;;14.50;95.80;;;;;;4316672;33;44305;-80
2021/10/02 08:25:17;;;;;;;;;;;14.40;96.10;;;;;;4316367;33;46116;-80
2021/10/02 08:27:45;;;;;;;;;;;14.40;95.80;;;;;;4316085;33;43583;-81
2021/10/02 08:30:16;;;;;;;;;;;14.50;95.80;;;;;;4303698;33;43482;-80
2021/10/02 08:32:45;;;;;;;;;;;14.40;95.80;;;;;;4315857;33;44176;-81
2021/10/02 08:35:15;;;;;;;;;;;14.50;95.90;;;;;;4303125;33;43455;-81
2021/10/02 08:37:45;;;;;;;;;;;14.50;95.90;;;;;;4315715;33;44314;-80
2021/10/02 08:40:14;;;;;;;;;;;14.50;95.80;;;;;;4302528;33;45207;-81
2021/10/02 08:42:47;;;;;;;;;;;14.50;95.90;;;;;;4303591;33;42854;-80
2021/10/02 08:45:17;;;;;;;;;;;14.50;95.90;;;;;;4316281;33;44256;-81
2021/10/02 08:47:45;;;;;;;;;;;14.50;95.90;;;;;;4315744;33;42981;-81
2021/10/02 08:50:15;;;;;;;;;;;14.50;96.30;;;;;;4315105;33;43815;-81
2021/10/02 08:52:46;;;;;;;;;;;14.50;96.00;;;;;;4302488;33;45109;-81
2021/10/02 08:55:14;;;;;;;;;;;14.50;96.00;;;;;;4302831;33;43909;-80
2021/10/02 08:57:47;;;;;;;;;;;14.50;96.00;;;;;;4303460;33;44199;-80
2021/10/02 09:00:21;;;;;;;;;;;14.50;96.00;;;;;;4302937;33;42881;-80
2021/10/02 09:02:50;;;;;;;;;;;14.50;95.90;;;;;;4315658;33;43197;-81
2021/10/02 09:05:22;;;;;;;;;;;14.50;96.00;;;;;;4314366;33;43862;-80
2021/10/02 09:07:53;;;;;;;;;;;14.50;96.00;;;;;;4303030;33;44224;-81
2021/10/02 09:10:22;;;;;;;;;;;14.60;96.00;;;;;;4316148;33;45336;-81
2021/10/02 09:12:52;;;;;;;;;;;14.60;96.00;;;;;;4315650;33;42761;-80
2021/10/02 09:15:28;;;;;;;;;;;14.60;96.00;;;;;;4302875;33;43493;-81
2021/10/02 09:17:56;;;;;;;;;;;14.60;95.90;;;;;;4316542;33;20016;-81
2021/10/02 09:20:26;;;;;;;;;;;14.60;95.90;;;;;;4302749;33;43270;-81
2021/10/02 09:22:58;;;;;;;;;;;14.60;96.00;;;;;;4302332;33;43235;-81
2021/10/02 09:25:33;;;;;;;;;;;14.60;96.00;;;;;;4302403;33;42343;-80
2021/10/02 09:28:12;;;;;;;;;;;14.70;96.10;;;;;;4303156;33;43476;-80
2021/10/02 09:30:40;;;;;;;;;;;14.70;96.10;;;;;;4315909;33;43176;-81
2021/10/02 09:33:19;;;;;;;;;;;14.70;96.00;;;;;;4315771;33;43647;-80
2021/10/02 09:35:47;;;;;;;;;;;14.70;96.00;;;;;;4303017;33;45998;-82
2021/10/02 09:38:15;;;;;;;;;;;14.70;96.10;;;;;;4304577;33;43484;-81
2021/10/02 09:41:11;;;;;;;;;;;14.80;96.10;;;;;;4318138;33;45643;-80
2021/10/02 09:43:50;;;;;;;;;;;14.80;96.10;;;;;;4315704;33;43158;-81
2021/10/02 09:46:30;;;;;;;;;;;14.80;96.10;;;;;;4305214;33;42256;-81
2021/10/02 09:49:00;;;;;;;;;;;14.90;96.10;;;;;;4319408;33;20041;-81
2021/10/02 09:51:38;;;;;;;;;;;14.90;96.00;;;;;;4305420;33;43169;-80
2021/10/02 09:54:38;;;;;;;;;;;14.90;96.00;;;;;;4318390;33;45419;-80
2021/10/02 09:57:13;;;;;;;;;;;14.90;96.00;;;;;;4317316;33;42469;-81
2021/10/02 09:59:42;;;;;;;;;;;14.90;96.00;;;;;;4305598;33;44096;-80
2021/10/02 10:02:17;;;;;;;;;;;14.90;96.00;;;;;;4317980;33;43287;-81
2021/10/02 10:04:54;;;;;;;;;;;15.00;96.00;;;;;;4305319;33;42650;-81
2021/10/02 10:07:25;;;;;;;;;;;15.00;96.00;;;;;;4318407;33;44731;-81
2021/10/02 10:09:58;;;;;;;;;;;14.90;96.00;;;;;;4304870;33;42985;-81
2021/10/02 10:12:29;;;;;;;;;;;14.90;96.00;;;;;;4305235;33;42982;-80
2021/10/02 10:14:58;;;;;;;;;;;14.90;96.00;;;;;;4318227;33;43540;-82
2021/10/02 10:17:32;;;;;;;;;;;15.00;96.00;;;;;;4305606;33;45026;-81
2021/10/02 10:20:03;;;;;;;;;;;15.00;96.00;;;;;;4306362;33;19998;-81
2021/10/02 10:22:34;;;;;;;;;;;15.00;96.00;;;;;;4318153;33;43926;-81
2021/10/02 10:25:05;;;;;;;;;;;15.00;96.00;;;;;;4318035;33;45020;-81
2021/10/02 10:27:35;;;;;;;;;;;15.10;96.10;;;;;;4318432;33;44491;-81
2021/10/02 10:30:13;;;;;;;;;;;15.00;96.10;;;;;;4317545;33;45846;-80
2021/10/02 10:32:58;;;;;;;;;;;15.10;96.10;;;;;;4317420;33;45886;-81
2021/10/02 10:35:29;;;;;;;;;;;15.10;96.10;;;;;;4317858;33;44036;-81
2021/10/02 10:37:56;;;;;;;;;;;15.10;96.20;;;;;;4316468;33;42710;-81
2021/10/02 10:40:29;;;;;;;;;;;15.10;96.10;;;;;;4316784;33;44322;-80
2021/10/02 10:43:01;;;;;;;;;;;15.10;96.10;;;;;;4317482;33;43126;-81
2021/10/02 10:45:35;;;;;;;;;;;15.20;96.20;;;;;;4304476;33;43785;-81
2021/10/02 10:48:02;;;;;;;;;;;15.20;96.20;;;;;;4304422;33;44317;-82
2021/10/02 10:50:32;;;;;;;;;;;15.20;96.20;;;;;;4318764;33;20030;-81
2021/10/02 10:53:00;;;;;;;;;;;15.20;96.20;;;;;;4317748;33;44300;-80
2021/10/02 10:55:33;;;;;;;;;;;15.20;96.10;;;;;;4317500;33;43423;-80
2021/10/02 10:58:03;;;;;;;;;;;15.30;96.10;;;;;;4317736;33;43478;-81
2021/10/02 11:00:43;;;;;;;;;;;15.20;96.10;;;;;;4316433;33;43241;-81
2021/10/02 11:03:11;;;;;;;;;;;15.30;96.10;;;;;;4317036;33;45435;-81
2021/10/02 11:05:43;;;;;;;;;;;15.30;96.10;;;;;;4317324;33;43188;-80
2021/10/02 11:08:12;;;;;;;;;;;15.30;96.10;;;;;;4304071;33;43464;-81
2021/10/02 11:10:45;;;;;;;;;;;15.30;96.00;;;;;;4317209;33;42825;-81
2021/10/02 11:13:22;;;;;;;;;;;15.30;96.10;;;;;;4316014;33;42791;-81
2021/10/02 11:15:49;;;;;;;;;;;15.40;96.30;;;;;;4304341;33;43190;-81
2021/10/02 11:18:35;;;;;;;;;;;15.40;96.10;;;;;;4317498;33;43110;-81
2021/10/02 11:21:07;;;;;;;;;;;15.50;96.00;;;;;;4318297;33;19991;-81
2021/10/02 11:23:53;;;;;;;;;;;15.50;95.80;;;;;;4317396;33;44431;-81
2021/10/02 11:26:40;;;;;;;;;;;15.60;95.90;;;;;;4317263;33;44916;-81
2021/10/02 11:29:26;;;;;;;;;;;15.60;95.60;;;;;;4316972;33;42528;-81
2021/10/02 11:32:12;;;;;;;;;;;15.60;95.70;;;;;;4317052;33;42731;-81
2021/10/02 11:35:00;;;;;;;;;;;15.60;95.50;;;;;;4316115;33;43876;-82
2021/10/02 11:37:47;;;;;;;;;;;15.60;95.40;;;;;;4304018;33;43482;-80
2021/10/02 11:40:34;;;;;;;;;;;15.60;95.50;;;;;;4315712;33;44238;-81
2021/10/02 11:43:13;;;;;;;;;;;15.60;95.40;;;;;;4315533;33;44002;-81
2021/10/02 11:45:44;;;;;;;;;;;15.60;95.30;;;;;;4304053;33;44629;-80
2021/10/02 11:48:18;;;;;;;;;;;15.60;95.20;;;;;;4316383;33;45820;-82
2021/10/02 11:51:05;;;;;;;;;;;15.60;94.90;;;;;;4317010;33;43303;-81
2021/10/02 11:53:41;;;;;;;;;;;15.60;95.00;;;;;;4303377;33;42604;-81
2021/10/02 11:56:13;;;;;;;;;;;15.70;94.90;;;;;;4317150;33;44249;-81
2021/10/02 11:58:42;;;;;;;;;;;15.70;94.70;;;;;;4303462;33;43474;-81
2021/10/02 12:01:31;;;;;;;;;;;15.70;94.70;;;;;;4303307;33;43168;-81
2021/10/02 12:03:59;;;;;;;;;;;15.70;94.70;;;;;;4316696;33;44058;-81
2021/10/02 12:06:37;;;;;;;;;;;15.70;94.70;;;;;;4303294;33;43468;-82
2021/10/02 12:09:21;;;;;;;;;;;15.70;94.80;;;;;;4303879;33;43842;-80
2021/10/02 12:11:53;;;;;;;;;;;15.70;94.70;;;;;;4316625;33;44127;-81
2021/10/02 12:14:24;;;;;;;;;;;15.80;94.60;;;;;;4316245;33;44190;-81
2021/10/02 12:17:12;;;;;;;;;;;15.80;94.60;;;;;;4303123;33;43365;-80
2021/10/02 12:19:47;;;;;;;;;;;15.80;94.30;;;;;;4316105;33;43010;-82
2021/10/02 12:22:14;;;;;;;;;;;15.80;94.30;;;;;;4316922;33;43322;-81
2021/10/02 12:24:48;;;;;;;;;;;15.80;94.20;;;;;;4303363;33;45841;-81
2021/10/02 12:27:23;;;;;;;;;;;15.80;94.10;;;;;;4314849;33;44238;-81
2021/10/02 12:29:57;;;;;;;;;;;15.80;94.00;;;;;;4316393;33;43638;-81
2021/10/02 12:32:25;;;;;;;;;;;15.80;93.90;;;;;;4303456;33;43698;-81
2021/10/02 12:35:04;;;;;;;;;;;15.80;93.80;;;;;;4315907;33;43478;-81
2021/10/02 12:37:39;;;;;;;;;;;15.80;93.90;;;;;;4303269;33;43870;-80
2021/10/02 12:40:08;;;;;;;;;;;15.70;93.60;;;;;;4303286;33;42616;-81
2021/10/02 12:42:44;;;;;;;;;;;15.70;93.80;;;;;;4315709;33;42717;-81
2021/10/02 12:45:16;;;;;;;;;;;15.80;93.80;;;;;;4316063;33;43266;-81
2021/10/02 12:47:48;;;;;;;;;;;15.80;93.40;;;;;;4316272;33;44734;-80
2021/10/02 12:50:22;;;;;;;;;;;15.80;93.50;;;;;;4315803;33;43035;-82
2021/10/02 12:52:54;;;;;;;;;;;15.80;93.50;;;;;;4302623;33;43318;-81
2021/10/02 12:55:21;;;;;;;;;;;15.80;93.40;;;;;;4317074;33;20046;-81
2021/10/02 12:57:59;;;;;;;;;;;15.70;93.20;;;;;;4302872;33;44421;-81
2021/10/02 13:00:35;;;;;;;;;;;15.70;93.30;;;;;;4302894;33;44220;-81
2021/10/02 13:03:10;;;;;;;;;;;15.70;93.10;;;;;;4315724;33;44951;-81
2021/10/02 13:05:40;;;;;;;;;;;15.80;93.20;;;;;;4316029;33;45196;-81
2021/10/02 13:08:12;;;;;;;;;;;15.80;93.20;;;;;;4314955;33;45474;-81
2021/10/02 13:10:45;;;;;;;;;;;15.80;93.00;;;;;;4314921;33;45095;-81
2021/10/02 13:13:13;;;;;;;;;;;15.80;93.10;;;;;;4315775;33;46076;-80
2021/10/02 13:15:50;;;;;;;;;;;15.80;93.20;;;;;;4314460;33;44199;-81
2021/10/02 13:18:19;;;;;;;;;;;15.80;93.10;;;;;;4302940;33;43362;-81
2021/10/02 13:20:51;;;;;;;;;;;15.80;92.90;;;;;;4302852;33;42929;-81
2021/10/02 13:23:25;;;;;;;;;;;15.90;93.00;;;;;;4302399;33;42831;-81
2021/10/02 13:26:00;;;;;;;;;;;15.80;92.80;;;;;;4315710;33;20045;-81
2021/10/02 13:28:28;;;;;;;;;;;15.90;92.90;;;;;;4302370;33;43775;-81
2021/10/02 13:31:07;;;;;;;;;;;15.90;92.70;;;;;;4315829;33;45065;-81
2021/10/02 13:33:47;;;;;;;;;;;15.90;92.70;;;;;;4314888;33;44681;-81
2021/10/02 13:36:20;;;;;;;;;;;15.80;92.30;;;;;;4315371;33;44049;-82
2021/10/02 13:38:53;;;;;;;;;;;15.90;92.50;;;;;;4314735;33;43648;-81
2021/10/02 13:41:31;;;;;;;;;;;15.90;92.50;;;;;;4303120;33;44799;-81
2021/10/02 13:44:09;;;;;;;;;;;15.90;92.30;;;;;;4314338;33;42486;-80
2021/10/02 13:46:41;;;;;;;;;;;15.90;92.30;;;;;;4314535;33;45582;-81
2021/10/02 13:49:10;;;;;;;;;;;15.90;92.40;;;;;;4315812;33;45348;-81
2021/10/02 13:51:39;;;;;;;;;;;15.90;92.40;;;;;;4302459;33;42530;-80
2021/10/02 13:54:12;;;;;;;;;;;15.90;92.30;;;;;;4315145;33;46019;-81
2021/10/02 13:56:43;;;;;;;;;;;15.90;92.30;;;;;;4303166;33;20359;-81
2021/10/02 13:59:18;;;;;;;;;;;15.90;92.40;;;;;;4315567;33;44905;-80
2021/10/02 14:01:56;;;;;;;;;;;15.90;92.30;;;;;;4302254;33;44124;-81
2021/10/02 14:04:34;;;;;;;;;;;15.90;92.30;;;;;;4315518;33;42626;-81
2021/10/02 14:07:12;;;;;;;;;;;15.90;92.30;;;;;;4315567;33;45268;-81
2021/10/02 14:09:42;;;;;;;;;;;15.90;92.40;;;;;;4315450;33;44249;-81
2021/10/02 14:12:13;;;;;;;;;;;15.90;92.30;;;;;;4315303;33;43266;-81
2021/10/02 14:14:46;;;;;;;;;;;16.00;92.30;;;;;;4315330;33;43165;-81
2021/10/02 14:17:24;;;;;;;;;;;16.00;92.10;;;;;;4315611;33;45682;-81
2021/10/02 14:20:02;;;;;;;;;;;16.00;92.10;;;;;;4302285;33;44158;-80
2021/10/02 14:22:38;;;;;;;;;;;16.00;92.00;;;;;;4314465;33;43867;-80
2021/10/02 14:25:13;;;;;;;;;;;16.00;91.90;;;;;;4310653;33;44909;-81
2021/10/02 14:27:46;;;;;;;;;;;16.00;92.00;;;;;;4305467;33;19998;-81
2021/10/02 14:30:20;;;;;;;;;;;16.00;92.10;;;;;;4317638;33;42695;-81
2021/10/02 14:33:01;;;;;;;;;;;16.00;92.10;;;;;;4305062;33;43214;-81
2021/10/02 14:35:39;;;;;;;;;;;16.00;92.10;;;;;;4317071;33;43539;-81
2021/10/02 14:38:15;;;;;;;;;;;16.00;92.00;;;;;;4304774;33;42890;-81
2021/10/02 14:40:45;;;;;;;;;;;16.00;92.00;;;;;;4304856;33;44116;-81
2021/10/02 14:43:13;;;;;;;;;;;16.00;92.00;;;;;;4318135;33;45548;-81
2021/10/02 14:45:45;;;;;;;;;;;16.00;91.90;;;;;;4317892;33;33615;-80
2021/10/02 14:48:21;;;;;;;;;;;16.00;92.00;;;;;;4304646;33;45572;-81
2021/10/02 14:51:02;;;;;;;;;;;16.10;92.00;;;;;;4317685;33;45103;-81
2021/10/02 14:53:41;;;;;;;;;;;16.10;92.00;;;;;;4317280;33;42317;-81
2021/10/02 14:56:17;;;;;;;;;;;16.10;92.00;;;;;;4304949;33;43914;-81
2021/10/02 14:58:57;;;;;;;;;;;16.10;92.00;;;;;;4318801;33;20065;-81
2021/10/02 15:01:27;;;;;;;;;;;16.10;92.00;;;;;;4317290;33;42874;-81
2021/10/02 15:03:55;;;;;;;;;;;16.10;92.00;;;;;;4317487;33;45668;-80
2021/10/02 15:06:31;;;;;;;;;;;16.20;92.00;;;;;;4304723;33;44037;-81
2021/10/02 15:09:06;;;;;;;;;;;16.10;92.00;;;;;;4317600;33;44208;-82
2021/10/02 15:11:34;;;;;;;;;;;16.20;92.10;;;;;;4316616;33;45992;-81
2021/10/02 15:14:09;;;;;;;;;;;16.10;92.00;;;;;;4317079;33;43883;-80
2021/10/02 15:16:47;;;;;;;;;;;16.20;92.10;;;;;;4317124;33;44061;-81
2021/10/02 15:19:20;;;;;;;;;;;16.20;92.00;;;;;;4317010;33;43114;-80
2021/10/02 15:22:19;;;;;;;;;;;16.20;92.10;;;;;;4304001;33;44197;-81
2021/10/02 15:24:52;;;;;;;;;;;16.20;92.10;;;;;;4316016;33;44569;-81
2021/10/02 15:27:39;;;;;;;;;;;16.20;92.10;;;;;;4304613;33;45067;-81
2021/10/02 15:30:09;;;;;;;;;;;16.20;92.10;;;;;;4316338;33;20094;-80
2021/10/02 15:32:50;;;;;;;;;;;16.30;92.10;;;;;;4304369;33;42272;-81
2021/10/02 15:35:20;;;;;;;;;;;16.30;92.20;;;;;;4316275;33;43825;-81
2021/10/02 15:37:47;;;;;;;;;;;16.30;92.20;;;;;;4316632;33;42696;-80
2021/10/02 15:40:18;;;;;;;;;;;16.20;92.20;;;;;;4317253;33;43360;-80